sensor_id;sensor_type;location;lat;lon;timestamp;P1;durP1;ratioP1;P2;durP2;ratioP2
40252;SDS011;25972;51.854;4.534;2023-05-07T00:01:59;12.90;;;6.90;;
40252;SDS011;25972;51.854;4.534;2023-05-07T00:04:25;14.98;;;7.95;;
40252;SDS011;25972;51.854;4.534;2023-05-07T00:06:50;15.65;;;7.80;;
40252;SDS011;25972;51.854;4.534;2023-05-07T00:09:16;14.95;;;7.40;;
40252;SDS011;25972;51.854;4.534;2023-05-07T00:11:42;16.95;;;8.63;;
40252;SDS011;25972;51.854;4.534;2023-05-07T00:14:08;15.65;;;6.93;;
40252;SDS011;25972;51.854;4.534;2023-05-07T00:16:33;15.88;;;8.27;;
40252;SDS011;25972;51.854;4.534;2023-05-07T00:18:59;18.92;;;9.07;;
40252;SDS011;25972;51.854;4.534;2023-05-07T00:21:25;15.88;;;7.55;;
40252;SDS011;25972;51.854;4.534;2023-05-07T00:23:52;16.30;;;8.50;;
40252;SDS011;25972;51.854;4.534;2023-05-07T00:26:18;16.20;;;8.23;;
40252;SDS011;25972;51.854;4.534;2023-05-07T00:28:46;18.05;;;8.30;;
40252;SDS011;25972;51.854;4.534;2023-05-07T00:31:12;17.42;;;9.13;;
40252;SDS011;25972;51.854;4.534;2023-05-07T00:33:38;16.20;;;9.40;;
40252;SDS011;25972;51.854;4.534;2023-05-07T00:36:04;16.38;;;8.45;;
40252;SDS011;25972;51.854;4.534;2023-05-07T00:38:30;18.75;;;8.30;;
40252;SDS011;25972;51.854;4.534;2023-05-07T00:40:56;16.08;;;7.85;;
40252;SDS011;25972;51.854;4.534;2023-05-07T00:43:22;14.77;;;7.55;;
40252;SDS011;25972;51.854;4.534;2023-05-07T00:45:48;18.50;;;8.20;;
40252;SDS011;25972;51.854;4.534;2023-05-07T00:48:14;17.85;;;9.15;;
40252;SDS011;25972;51.854;4.534;2023-05-07T00:50:40;18.45;;;8.93;;
40252;SDS011;25972;51.854;4.534;2023-05-07T00:53:06;17.67;;;9.25;;
40252;SDS011;25972;51.854;4.534;2023-05-07T00:55:32;17.77;;;8.90;;
40252;SDS011;25972;51.854;4.534;2023-05-07T00:57:58;19.30;;;8.45;;
40252;SDS011;25972;51.854;4.534;2023-05-07T01:00:24;18.40;;;9.52;;
40252;SDS011;25972;51.854;4.534;2023-05-07T01:02:50;15.45;;;8.23;;
40252;SDS011;25972;51.854;4.534;2023-05-07T01:05:17;18.45;;;9.20;;
40252;SDS011;25972;51.854;4.534;2023-05-07T01:07:44;18.50;;;9.63;;
40252;SDS011;25972;51.854;4.534;2023-05-07T01:10:10;15.32;;;8.43;;
40252;SDS011;25972;51.854;4.534;2023-05-07T01:12:37;16.10;;;7.88;;
40252;SDS011;25972;51.854;4.534;2023-05-07T01:15:05;18.20;;;8.48;;
40252;SDS011;25972;51.854;4.534;2023-05-07T01:17:33;19.55;;;8.68;;
40252;SDS011;25972;51.854;4.534;2023-05-07T01:20:05;13.98;;;7.40;;
40252;SDS011;25972;51.854;4.534;2023-05-07T01:22:33;17.15;;;7.68;;
40252;SDS011;25972;51.854;4.534;2023-05-07T01:25:01;12.80;;;7.28;;
40252;SDS011;25972;51.854;4.534;2023-05-07T01:27:29;15.20;;;8.07;;
40252;SDS011;25972;51.854;4.534;2023-05-07T01:29:55;13.95;;;7.82;;
40252;SDS011;25972;51.854;4.534;2023-05-07T01:35:07;14.90;;;7.00;;
40252;SDS011;25972;51.854;4.534;2023-05-07T01:37:37;12.07;;;5.80;;
40252;SDS011;25972;51.854;4.534;2023-05-07T01:40:04;13.93;;;6.72;;
40252;SDS011;25972;51.854;4.534;2023-05-07T01:42:32;12.40;;;6.78;;
40252;SDS011;25972;51.854;4.534;2023-05-07T01:44:58;10.90;;;5.65;;
40252;SDS011;25972;51.854;4.534;2023-05-07T01:47:25;12.73;;;6.05;;
40252;SDS011;25972;51.854;4.534;2023-05-07T01:49:51;11.55;;;6.32;;
40252;SDS011;25972;51.854;4.534;2023-05-07T01:52:18;11.93;;;6.25;;
40252;SDS011;25972;51.854;4.534;2023-05-07T01:54:44;10.18;;;5.57;;
40252;SDS011;25972;51.854;4.534;2023-05-07T01:57:10;12.48;;;5.78;;
40252;SDS011;25972;51.854;4.534;2023-05-07T01:59:36;11.27;;;5.18;;
40252;SDS011;25972;51.854;4.534;2023-05-07T02:02:02;11.52;;;5.50;;
40252;SDS011;25972;51.854;4.534;2023-05-07T02:04:30;14.27;;;5.93;;
40252;SDS011;25972;51.854;4.534;2023-05-07T02:06:55;11.00;;;6.18;;
40252;SDS011;25972;51.854;4.534;2023-05-07T02:09:22;9.98;;;5.50;;
40252;SDS011;25972;51.854;4.534;2023-05-07T02:11:49;10.93;;;5.85;;
40252;SDS011;25972;51.854;4.534;2023-05-07T02:14:17;10.10;;;5.18;;
40252;SDS011;25972;51.854;4.534;2023-05-07T02:16:45;11.50;;;5.32;;
40252;SDS011;25972;51.854;4.534;2023-05-07T02:19:12;14.45;;;6.00;;
40252;SDS011;25972;51.854;4.534;2023-05-07T02:21:38;10.20;;;5.00;;
40252;SDS011;25972;51.854;4.534;2023-05-07T02:24:04;10.68;;;5.93;;
40252;SDS011;25972;51.854;4.534;2023-05-07T02:26:30;12.10;;;6.07;;
40252;SDS011;25972;51.854;4.534;2023-05-07T02:28:56;10.30;;;4.93;;
40252;SDS011;25972;51.854;4.534;2023-05-07T02:31:22;9.05;;;4.82;;
40252;SDS011;25972;51.854;4.534;2023-05-07T02:33:48;10.65;;;5.70;;
40252;SDS011;25972;51.854;4.534;2023-05-07T02:36:14;10.75;;;5.30;;
40252;SDS011;25972;51.854;4.534;2023-05-07T02:38:47;10.43;;;5.05;;
40252;SDS011;25972;51.854;4.534;2023-05-07T02:41:13;10.32;;;5.30;;
40252;SDS011;25972;51.854;4.534;2023-05-07T02:43:38;9.38;;;5.22;;
40252;SDS011;25972;51.854;4.534;2023-05-07T02:46:05;9.80;;;5.22;;
40252;SDS011;25972;51.854;4.534;2023-05-07T02:48:35;9.27;;;5.47;;
40252;SDS011;25972;51.854;4.534;2023-05-07T02:51:01;9.15;;;4.82;;
40252;SDS011;25972;51.854;4.534;2023-05-07T02:53:28;8.88;;;4.72;;
40252;SDS011;25972;51.854;4.534;2023-05-07T02:55:55;10.38;;;5.07;;
40252;SDS011;25972;51.854;4.534;2023-05-07T02:58:22;10.52;;;5.20;;
40252;SDS011;25972;51.854;4.534;2023-05-07T03:00:48;10.00;;;5.07;;
40252;SDS011;25972;51.854;4.534;2023-05-07T03:03:28;9.52;;;5.25;;
40252;SDS011;25972;51.854;4.534;2023-05-07T03:05:54;8.55;;;4.80;;
40252;SDS011;25972;51.854;4.534;2023-05-07T03:08:20;8.90;;;4.93;;
40252;SDS011;25972;51.854;4.534;2023-05-07T03:10:45;8.15;;;4.63;;
40252;SDS011;25972;51.854;4.534;2023-05-07T03:13:11;11.38;;;5.20;;
40252;SDS011;25972;51.854;4.534;2023-05-07T03:15:37;8.07;;;4.32;;
40252;SDS011;25972;51.854;4.534;2023-05-07T03:18:03;8.13;;;4.25;;
40252;SDS011;25972;51.854;4.534;2023-05-07T03:20:29;7.80;;;4.00;;
40252;SDS011;25972;51.854;4.534;2023-05-07T03:22:55;7.28;;;3.92;;
40252;SDS011;25972;51.854;4.534;2023-05-07T03:25:21;9.85;;;4.22;;
40252;SDS011;25972;51.854;4.534;2023-05-07T03:27:47;9.73;;;5.00;;
40252;SDS011;25972;51.854;4.534;2023-05-07T03:30:13;11.10;;;4.55;;
40252;SDS011;25972;51.854;4.534;2023-05-07T03:32:41;10.95;;;5.57;;
40252;SDS011;25972;51.854;4.534;2023-05-07T03:35:10;9.25;;;4.60;;
40252;SDS011;25972;51.854;4.534;2023-05-07T03:37:36;12.50;;;4.78;;
40252;SDS011;25972;51.854;4.534;2023-05-07T03:40:03;10.10;;;4.78;;
40252;SDS011;25972;51.854;4.534;2023-05-07T03:42:36;9.13;;;4.53;;
40252;SDS011;25972;51.854;4.534;2023-05-07T03:45:02;9.38;;;4.72;;
40252;SDS011;25972;51.854;4.534;2023-05-07T03:47:28;7.18;;;3.63;;
40252;SDS011;25972;51.854;4.534;2023-05-07T03:49:55;9.40;;;4.43;;
40252;SDS011;25972;51.854;4.534;2023-05-07T03:52:22;8.95;;;4.60;;
40252;SDS011;25972;51.854;4.534;2023-05-07T03:54:52;12.05;;;5.00;;
40252;SDS011;25972;51.854;4.534;2023-05-07T03:57:19;9.27;;;4.22;;
40252;SDS011;25972;51.854;4.534;2023-05-07T03:59:46;9.52;;;4.45;;
40252;SDS011;25972;51.854;4.534;2023-05-07T04:02:12;9.07;;;4.38;;
40252;SDS011;25972;51.854;4.534;2023-05-07T04:04:38;8.73;;;4.63;;
40252;SDS011;25972;51.854;4.534;2023-05-07T04:07:04;7.80;;;3.83;;
40252;SDS011;25972;51.854;4.534;2023-05-07T04:09:35;11.77;;;5.07;;
40252;SDS011;25972;51.854;4.534;2023-05-07T04:12:01;8.35;;;5.00;;
40252;SDS011;25972;51.854;4.534;2023-05-07T04:14:27;8.73;;;4.25;;
40252;SDS011;25972;51.854;4.534;2023-05-07T04:16:53;7.72;;;4.43;;
40252;SDS011;25972;51.854;4.534;2023-05-07T04:19:19;8.80;;;4.10;;
40252;SDS011;25972;51.854;4.534;2023-05-07T04:21:47;9.82;;;4.90;;
40252;SDS011;25972;51.854;4.534;2023-05-07T04:24:13;7.38;;;4.20;;
40252;SDS011;25972;51.854;4.534;2023-05-07T04:26:39;8.68;;;4.80;;
40252;SDS011;25972;51.854;4.534;2023-05-07T04:29:06;10.10;;;4.82;;
40252;SDS011;25972;51.854;4.534;2023-05-07T04:31:33;9.35;;;4.32;;
40252;SDS011;25972;51.854;4.534;2023-05-07T04:33:58;7.22;;;4.03;;
40252;SDS011;25972;51.854;4.534;2023-05-07T04:36:25;10.27;;;4.55;;
40252;SDS011;25972;51.854;4.534;2023-05-07T04:39:02;9.07;;;4.32;;
40252;SDS011;25972;51.854;4.534;2023-05-07T04:41:28;7.93;;;4.47;;
40252;SDS011;25972;51.854;4.534;2023-05-07T04:43:54;8.95;;;4.78;;
40252;SDS011;25972;51.854;4.534;2023-05-07T04:46:22;9.93;;;5.07;;
40252;SDS011;25972;51.854;4.534;2023-05-07T04:48:49;11.20;;;4.93;;
40252;SDS011;25972;51.854;4.534;2023-05-07T04:51:15;8.65;;;4.72;;
40252;SDS011;25972;51.854;4.534;2023-05-07T04:53:41;8.95;;;4.32;;
40252;SDS011;25972;51.854;4.534;2023-05-07T04:56:08;8.30;;;4.47;;
40252;SDS011;25972;51.854;4.534;2023-05-07T04:58:39;9.82;;;4.63;;
40252;SDS011;25972;51.854;4.534;2023-05-07T05:01:05;11.07;;;5.18;;
40252;SDS011;25972;51.854;4.534;2023-05-07T05:03:33;8.77;;;4.60;;
40252;SDS011;25972;51.854;4.534;2023-05-07T05:05:59;8.20;;;4.55;;
40252;SDS011;25972;51.854;4.534;2023-05-07T05:08:27;7.68;;;4.18;;
40252;SDS011;25972;51.854;4.534;2023-05-07T05:10:55;8.65;;;4.13;;
40252;SDS011;25972;51.854;4.534;2023-05-07T05:13:21;9.20;;;5.03;;
40252;SDS011;25972;51.854;4.534;2023-05-07T05:15:47;9.70;;;4.28;;
40252;SDS011;25972;51.854;4.534;2023-05-07T05:18:13;8.88;;;4.13;;
40252;SDS011;25972;51.854;4.534;2023-05-07T05:20:39;10.40;;;4.80;;
40252;SDS011;25972;51.854;4.534;2023-05-07T05:23:05;9.73;;;4.85;;
40252;SDS011;25972;51.854;4.534;2023-05-07T05:25:32;10.43;;;5.53;;
40252;SDS011;25972;51.854;4.534;2023-05-07T05:27:59;11.75;;;5.50;;
40252;SDS011;25972;51.854;4.534;2023-05-07T05:30:25;9.45;;;5.25;;
40252;SDS011;25972;51.854;4.534;2023-05-07T05:32:51;10.50;;;5.47;;
40252;SDS011;25972;51.854;4.534;2023-05-07T05:35:17;12.23;;;6.05;;
40252;SDS011;25972;51.854;4.534;2023-05-07T05:37:43;10.32;;;5.10;;
40252;SDS011;25972;51.854;4.534;2023-05-07T05:40:09;10.35;;;5.78;;
40252;SDS011;25972;51.854;4.534;2023-05-07T05:42:35;10.20;;;5.38;;
40252;SDS011;25972;51.854;4.534;2023-05-07T05:45:02;9.55;;;5.05;;
40252;SDS011;25972;51.854;4.534;2023-05-07T05:47:30;9.55;;;4.60;;
40252;SDS011;25972;51.854;4.534;2023-05-07T05:49:55;11.45;;;6.22;;
40252;SDS011;25972;51.854;4.534;2023-05-07T05:52:21;11.00;;;5.47;;
40252;SDS011;25972;51.854;4.534;2023-05-07T05:54:49;11.25;;;5.43;;
40252;SDS011;25972;51.854;4.534;2023-05-07T05:57:16;10.05;;;5.15;;
40252;SDS011;25972;51.854;4.534;2023-05-07T05:59:44;9.50;;;4.82;;
40252;SDS011;25972;51.854;4.534;2023-05-07T06:02:10;9.25;;;4.88;;
40252;SDS011;25972;51.854;4.534;2023-05-07T06:04:36;10.75;;;4.90;;
40252;SDS011;25972;51.854;4.534;2023-05-07T06:07:02;10.35;;;4.68;;
40252;SDS011;25972;51.854;4.534;2023-05-07T06:09:28;10.52;;;4.85;;
40252;SDS011;25972;51.854;4.534;2023-05-07T06:11:54;9.55;;;5.07;;
40252;SDS011;25972;51.854;4.534;2023-05-07T06:14:20;10.20;;;5.75;;
40252;SDS011;25972;51.854;4.534;2023-05-07T06:16:46;12.85;;;5.78;;
40252;SDS011;25972;51.854;4.534;2023-05-07T06:19:12;11.07;;;5.30;;
40252;SDS011;25972;51.854;4.534;2023-05-07T06:21:39;9.55;;;4.85;;
40252;SDS011;25972;51.854;4.534;2023-05-07T06:24:05;9.60;;;5.03;;
40252;SDS011;25972;51.854;4.534;2023-05-07T06:26:31;11.57;;;5.60;;
40252;SDS011;25972;51.854;4.534;2023-05-07T06:28:57;9.82;;;5.10;;
40252;SDS011;25972;51.854;4.534;2023-05-07T06:31:28;9.18;;;4.68;;
40252;SDS011;25972;51.854;4.534;2023-05-07T06:34:02;10.10;;;5.35;;
40252;SDS011;25972;51.854;4.534;2023-05-07T06:36:33;11.13;;;5.65;;
40252;SDS011;25972;51.854;4.534;2023-05-07T06:39:03;9.93;;;5.53;;
40252;SDS011;25972;51.854;4.534;2023-05-07T06:41:29;9.13;;;4.95;;
40252;SDS011;25972;51.854;4.534;2023-05-07T06:44:00;10.52;;;5.28;;
40252;SDS011;25972;51.854;4.534;2023-05-07T06:46:35;10.13;;;5.53;;
40252;SDS011;25972;51.854;4.534;2023-05-07T06:49:03;12.35;;;6.45;;
40252;SDS011;25972;51.854;4.534;2023-05-07T06:51:28;12.60;;;6.70;;
40252;SDS011;25972;51.854;4.534;2023-05-07T06:53:59;10.52;;;5.93;;
40252;SDS011;25972;51.854;4.534;2023-05-07T06:56:26;12.48;;;6.05;;
40252;SDS011;25972;51.854;4.534;2023-05-07T06:58:52;13.85;;;6.80;;
40252;SDS011;25972;51.854;4.534;2023-05-07T07:01:19;12.38;;;6.75;;
40252;SDS011;25972;51.854;4.534;2023-05-07T07:03:45;11.75;;;6.53;;
40252;SDS011;25972;51.854;4.534;2023-05-07T07:06:11;11.73;;;6.25;;
40252;SDS011;25972;51.854;4.534;2023-05-07T07:08:37;11.35;;;6.05;;
40252;SDS011;25972;51.854;4.534;2023-05-07T07:11:05;11.82;;;6.60;;
40252;SDS011;25972;51.854;4.534;2023-05-07T07:13:31;11.48;;;6.50;;
40252;SDS011;25972;51.854;4.534;2023-05-07T07:15:57;10.15;;;5.65;;
40252;SDS011;25972;51.854;4.534;2023-05-07T07:18:23;10.90;;;6.05;;
40252;SDS011;25972;51.854;4.534;2023-05-07T07:20:50;11.52;;;6.07;;
40252;SDS011;25972;51.854;4.534;2023-05-07T07:23:17;13.07;;;6.65;;
40252;SDS011;25972;51.854;4.534;2023-05-07T07:25:43;12.23;;;6.05;;
40252;SDS011;25972;51.854;4.534;2023-05-07T07:28:10;10.73;;;6.32;;
40252;SDS011;25972;51.854;4.534;2023-05-07T07:30:37;12.68;;;6.93;;
40252;SDS011;25972;51.854;4.534;2023-05-07T07:33:07;11.80;;;6.63;;
40252;SDS011;25972;51.854;4.534;2023-05-07T07:35:35;15.82;;;7.68;;
40252;SDS011;25972;51.854;4.534;2023-05-07T07:38:04;14.27;;;8.07;;
40252;SDS011;25972;51.854;4.534;2023-05-07T07:40:38;14.20;;;8.23;;
40252;SDS011;25972;51.854;4.534;2023-05-07T07:43:07;12.38;;;7.05;;
40252;SDS011;25972;51.854;4.534;2023-05-07T07:45:33;12.90;;;6.80;;
40252;SDS011;25972;51.854;4.534;2023-05-07T07:48:00;11.80;;;5.95;;
40252;SDS011;25972;51.854;4.534;2023-05-07T07:50:26;12.18;;;6.05;;
40252;SDS011;25972;51.854;4.534;2023-05-07T07:52:52;11.23;;;6.05;;
40252;SDS011;25972;51.854;4.534;2023-05-07T07:55:19;13.02;;;6.85;;
40252;SDS011;25972;51.854;4.534;2023-05-07T07:57:49;12.10;;;6.25;;
40252;SDS011;25972;51.854;4.534;2023-05-07T08:00:16;13.27;;;7.68;;
40252;SDS011;25972;51.854;4.534;2023-05-07T08:02:50;10.63;;;5.68;;
40252;SDS011;25972;51.854;4.534;2023-05-07T08:05:23;12.10;;;6.20;;
40252;SDS011;25972;51.854;4.534;2023-05-07T08:07:50;11.13;;;5.53;;
40252;SDS011;25972;51.854;4.534;2023-05-07T08:10:21;11.15;;;6.30;;
40252;SDS011;25972;51.854;4.534;2023-05-07T08:12:50;13.75;;;7.05;;
40252;SDS011;25972;51.854;4.534;2023-05-07T08:15:16;9.75;;;5.38;;
40252;SDS011;25972;51.854;4.534;2023-05-07T08:17:43;10.68;;;5.75;;
40252;SDS011;25972;51.854;4.534;2023-05-07T08:20:09;8.65;;;5.15;;
40252;SDS011;25972;51.854;4.534;2023-05-07T08:22:36;10.05;;;5.72;;
40252;SDS011;25972;51.854;4.534;2023-05-07T08:25:02;12.70;;;6.28;;
40252;SDS011;25972;51.854;4.534;2023-05-07T08:27:29;9.27;;;5.32;;
40252;SDS011;25972;51.854;4.534;2023-05-07T08:29:55;11.95;;;6.05;;
40252;SDS011;25972;51.854;4.534;2023-05-07T08:32:21;10.27;;;6.18;;
40252;SDS011;25972;51.854;4.534;2023-05-07T08:34:47;12.05;;;5.78;;
40252;SDS011;25972;51.854;4.534;2023-05-07T08:37:13;10.70;;;5.65;;
40252;SDS011;25972;51.854;4.534;2023-05-07T08:39:39;9.88;;;5.13;;
40252;SDS011;25972;51.854;4.534;2023-05-07T08:42:11;9.52;;;5.20;;
40252;SDS011;25972;51.854;4.534;2023-05-07T08:44:42;11.88;;;6.63;;
40252;SDS011;25972;51.854;4.534;2023-05-07T08:47:13;10.02;;;5.80;;
40252;SDS011;25972;51.854;4.534;2023-05-07T08:49:40;12.82;;;7.38;;
40252;SDS011;25972;51.854;4.534;2023-05-07T08:52:06;9.95;;;6.05;;
40252;SDS011;25972;51.854;4.534;2023-05-07T08:54:32;11.48;;;6.22;;
40252;SDS011;25972;51.854;4.534;2023-05-07T08:57:01;11.27;;;5.78;;
40252;SDS011;25972;51.854;4.534;2023-05-07T08:59:32;9.10;;;5.70;;
40252;SDS011;25972;51.854;4.534;2023-05-07T09:01:58;10.40;;;5.75;;
40252;SDS011;25972;51.854;4.534;2023-05-07T09:04:25;9.70;;;5.13;;
40252;SDS011;25972;51.854;4.534;2023-05-07T09:06:51;10.48;;;5.00;;
40252;SDS011;25972;51.854;4.534;2023-05-07T09:09:18;9.63;;;4.63;;
40252;SDS011;25972;51.854;4.534;2023-05-07T09:11:47;9.05;;;5.32;;
40252;SDS011;25972;51.854;4.534;2023-05-07T09:14:17;8.57;;;4.85;;
40252;SDS011;25972;51.854;4.534;2023-05-07T09:16:52;8.32;;;4.95;;
40252;SDS011;25972;51.854;4.534;2023-05-07T09:19:24;11.15;;;5.13;;
40252;SDS011;25972;51.854;4.534;2023-05-07T09:21:57;8.13;;;4.30;;
40252;SDS011;25972;51.854;4.534;2023-05-07T09:24:31;10.23;;;5.32;;
40252;SDS011;25972;51.854;4.534;2023-05-07T09:27:02;8.60;;;4.13;;
40252;SDS011;25972;51.854;4.534;2023-05-07T09:29:29;10.88;;;4.35;;
40252;SDS011;25972;51.854;4.534;2023-05-07T09:32:01;9.85;;;4.57;;
40252;SDS011;25972;51.854;4.534;2023-05-07T09:34:28;6.82;;;3.80;;
40252;SDS011;25972;51.854;4.534;2023-05-07T09:36:56;7.70;;;4.35;;
40252;SDS011;25972;51.854;4.534;2023-05-07T09:39:23;8.18;;;4.72;;
40252;SDS011;25972;51.854;4.534;2023-05-07T09:41:50;7.25;;;3.78;;
40252;SDS011;25972;51.854;4.534;2023-05-07T09:44:25;8.25;;;3.60;;
40252;SDS011;25972;51.854;4.534;2023-05-07T09:46:53;7.30;;;4.00;;
40252;SDS011;25972;51.854;4.534;2023-05-07T09:49:25;7.95;;;4.00;;
40252;SDS011;25972;51.854;4.534;2023-05-07T09:52:00;6.65;;;3.53;;
40252;SDS011;25972;51.854;4.534;2023-05-07T09:54:30;7.95;;;4.22;;
40252;SDS011;25972;51.854;4.534;2023-05-07T09:57:01;8.13;;;4.25;;
40252;SDS011;25972;51.854;4.534;2023-05-07T09:59:31;7.30;;;3.70;;
40252;SDS011;25972;51.854;4.534;2023-05-07T10:02:00;8.30;;;4.22;;
40252;SDS011;25972;51.854;4.534;2023-05-07T10:04:31;7.47;;;4.18;;
40252;SDS011;25972;51.854;4.534;2023-05-07T10:06:58;9.68;;;4.20;;
40252;SDS011;25972;51.854;4.534;2023-05-07T10:09:26;8.05;;;3.70;;
40252;SDS011;25972;51.854;4.534;2023-05-07T10:11:52;7.75;;;3.97;;
40252;SDS011;25972;51.854;4.534;2023-05-07T10:14:20;10.05;;;4.35;;
40252;SDS011;25972;51.854;4.534;2023-05-07T10:16:46;6.85;;;3.70;;
40252;SDS011;25972;51.854;4.534;2023-05-07T10:19:15;7.22;;;3.47;;
40252;SDS011;25972;51.854;4.534;2023-05-07T10:21:51;10.88;;;4.00;;
40252;SDS011;25972;51.854;4.534;2023-05-07T10:24:26;6.68;;;3.78;;
40252;SDS011;25972;51.854;4.534;2023-05-07T10:26:57;8.25;;;4.40;;
40252;SDS011;25972;51.854;4.534;2023-05-07T10:34:56;7.32;;;3.85;;
40252;SDS011;25972;51.854;4.534;2023-05-07T10:37:25;6.65;;;3.10;;
40252;SDS011;25972;51.854;4.534;2023-05-07T10:39:52;7.20;;;3.40;;
40252;SDS011;25972;51.854;4.534;2023-05-07T10:42:18;7.43;;;3.65;;
40252;SDS011;25972;51.854;4.534;2023-05-07T10:44:49;6.97;;;3.50;;
40252;SDS011;25972;51.854;4.534;2023-05-07T10:52:24;7.75;;;3.90;;
40252;SDS011;25972;51.854;4.534;2023-05-07T10:57:49;5.80;;;3.47;;
40252;SDS011;25972;51.854;4.534;2023-05-07T11:05:32;8.82;;;3.15;;
40252;SDS011;25972;51.854;4.534;2023-05-07T11:08:15;8.57;;;3.83;;
40252;SDS011;25972;51.854;4.534;2023-05-07T11:11:10;6.05;;;3.25;;
40252;SDS011;25972;51.854;4.534;2023-05-07T11:13:50;6.05;;;2.75;;
40252;SDS011;25972;51.854;4.534;2023-05-07T11:16:24;6.45;;;2.63;;
40252;SDS011;25972;51.854;4.534;2023-05-07T11:19:09;4.63;;;2.30;;
40252;SDS011;25972;51.854;4.534;2023-05-07T11:21:41;5.47;;;2.83;;
40252;SDS011;25972;51.854;4.534;2023-05-07T11:24:39;6.03;;;3.13;;
40252;SDS011;25972;51.854;4.534;2023-05-07T11:27:07;6.30;;;2.97;;
40252;SDS011;25972;51.854;4.534;2023-05-07T11:29:34;7.22;;;2.95;;
40252;SDS011;25972;51.854;4.534;2023-05-07T11:32:10;6.35;;;3.17;;
40252;SDS011;25972;51.854;4.534;2023-05-07T11:34:44;7.65;;;3.10;;
40252;SDS011;25972;51.854;4.534;2023-05-07T11:37:16;6.03;;;2.90;;
40252;SDS011;25972;51.854;4.534;2023-05-07T11:39:51;7.65;;;3.22;;
40252;SDS011;25972;51.854;4.534;2023-05-07T11:42:30;6.43;;;2.90;;
40252;SDS011;25972;51.854;4.534;2023-05-07T11:44:58;4.72;;;2.65;;
40252;SDS011;25972;51.854;4.534;2023-05-07T11:47:24;7.10;;;2.88;;
40252;SDS011;25972;51.854;4.534;2023-05-07T11:49:53;5.38;;;2.88;;
40252;SDS011;25972;51.854;4.534;2023-05-07T11:52:20;4.78;;;2.85;;
40252;SDS011;25972;51.854;4.534;2023-05-07T11:54:50;5.70;;;3.17;;
40252;SDS011;25972;51.854;4.534;2023-05-07T11:57:18;7.03;;;3.13;;
40252;SDS011;25972;51.854;4.534;2023-05-07T11:59:44;7.38;;;4.00;;
40252;SDS011;25972;51.854;4.534;2023-05-07T12:02:10;7.00;;;3.72;;
40252;SDS011;25972;51.854;4.534;2023-05-07T12:04:36;6.35;;;3.70;;
40252;SDS011;25972;51.854;4.534;2023-05-07T12:07:03;10.15;;;4.78;;
40252;SDS011;25972;51.854;4.534;2023-05-07T12:09:29;7.22;;;4.03;;
40252;SDS011;25972;51.854;4.534;2023-05-07T12:12:03;9.02;;;4.40;;
40252;SDS011;25972;51.854;4.534;2023-05-07T12:14:29;9.27;;;4.38;;
40252;SDS011;25972;51.854;4.534;2023-05-07T12:16:55;7.00;;;3.80;;
40252;SDS011;25972;51.854;4.534;2023-05-07T12:19:22;8.20;;;4.07;;
40252;SDS011;25972;51.854;4.534;2023-05-07T12:21:48;7.15;;;4.40;;
40252;SDS011;25972;51.854;4.534;2023-05-07T12:24:14;7.20;;;3.53;;
40252;SDS011;25972;51.854;4.534;2023-05-07T12:26:40;7.57;;;3.50;;
40252;SDS011;25972;51.854;4.534;2023-05-07T12:29:06;6.65;;;4.03;;
40252;SDS011;25972;51.854;4.534;2023-05-07T12:31:32;9.35;;;4.65;;
40252;SDS011;25972;51.854;4.534;2023-05-07T12:33:58;8.77;;;3.88;;
40252;SDS011;25972;51.854;4.534;2023-05-07T12:36:24;6.55;;;3.50;;
40252;SDS011;25972;51.854;4.534;2023-05-07T12:38:51;8.40;;;4.55;;
40252;SDS011;25972;51.854;4.534;2023-05-07T12:41:17;9.57;;;4.63;;
40252;SDS011;25972;51.854;4.534;2023-05-07T12:43:43;8.45;;;4.35;;
40252;SDS011;25972;51.854;4.534;2023-05-07T12:46:10;8.68;;;4.40;;
40252;SDS011;25972;51.854;4.534;2023-05-07T12:48:43;9.35;;;5.10;;
40252;SDS011;25972;51.854;4.534;2023-05-07T12:51:10;9.43;;;4.53;;
40252;SDS011;25972;51.854;4.534;2023-05-07T12:53:42;9.85;;;5.55;;
40252;SDS011;25972;51.854;4.534;2023-05-07T12:56:08;7.85;;;4.47;;
40252;SDS011;25972;51.854;4.534;2023-05-07T12:58:35;14.07;;;4.47;;
40252;SDS011;25972;51.854;4.534;2023-05-07T13:01:05;8.70;;;4.78;;
40252;SDS011;25972;51.854;4.534;2023-05-07T13:06:03;8.93;;;4.55;;
40252;SDS011;25972;51.854;4.534;2023-05-07T13:08:32;13.38;;;5.40;;
40252;SDS011;25972;51.854;4.534;2023-05-07T13:11:00;11.55;;;5.20;;
40252;SDS011;25972;51.854;4.534;2023-05-07T13:13:29;12.13;;;5.88;;
40252;SDS011;25972;51.854;4.534;2023-05-07T13:15:55;9.73;;;4.53;;
40252;SDS011;25972;51.854;4.534;2023-05-07T13:18:21;8.60;;;4.55;;
40252;SDS011;25972;51.854;4.534;2023-05-07T13:20:47;11.23;;;5.13;;
40252;SDS011;25972;51.854;4.534;2023-05-07T13:23:13;9.85;;;4.60;;
40252;SDS011;25972;51.854;4.534;2023-05-07T13:25:39;9.15;;;4.53;;
40252;SDS011;25972;51.854;4.534;2023-05-07T13:28:08;8.20;;;4.78;;
40252;SDS011;25972;51.854;4.534;2023-05-07T13:30:34;10.88;;;4.45;;
40252;SDS011;25972;51.854;4.534;2023-05-07T13:33:02;7.57;;;4.13;;
40252;SDS011;25972;51.854;4.534;2023-05-07T13:35:27;11.65;;;4.82;;
40252;SDS011;25972;51.854;4.534;2023-05-07T13:37:53;11.73;;;4.70;;
40252;SDS011;25972;51.854;4.534;2023-05-07T13:40:20;9.63;;;4.75;;
40252;SDS011;25972;51.854;4.534;2023-05-07T13:42:49;7.65;;;4.53;;
40252;SDS011;25972;51.854;4.534;2023-05-07T13:45:15;10.38;;;4.60;;
40252;SDS011;25972;51.854;4.534;2023-05-07T13:47:41;10.45;;;4.97;;
40252;SDS011;25972;51.854;4.534;2023-05-07T13:50:08;10.05;;;5.47;;
40252;SDS011;25972;51.854;4.534;2023-05-07T13:52:35;8.48;;;4.40;;
40252;SDS011;25972;51.854;4.534;2023-05-07T13:55:00;9.25;;;5.20;;
40252;SDS011;25972;51.854;4.534;2023-05-07T13:57:26;14.77;;;5.28;;
40252;SDS011;25972;51.854;4.534;2023-05-07T13:59:52;11.15;;;4.97;;
40252;SDS011;25972;51.854;4.534;2023-05-07T14:02:18;11.13;;;4.65;;
40252;SDS011;25972;51.854;4.534;2023-05-07T14:04:44;12.13;;;5.00;;
40252;SDS011;25972;51.854;4.534;2023-05-07T14:07:10;10.75;;;5.65;;
40252;SDS011;25972;51.854;4.534;2023-05-07T14:09:36;8.95;;;5.20;;
40252;SDS011;25972;51.854;4.534;2023-05-07T14:12:02;11.63;;;5.78;;
40252;SDS011;25972;51.854;4.534;2023-05-07T14:14:28;12.45;;;5.85;;
40252;SDS011;25972;51.854;4.534;2023-05-07T14:16:53;15.80;;;5.60;;
40252;SDS011;25972;51.854;4.534;2023-05-07T14:19:19;10.48;;;6.40;;
40252;SDS011;25972;51.854;4.534;2023-05-07T14:21:47;13.30;;;6.53;;
40252;SDS011;25972;51.854;4.534;2023-05-07T14:24:14;13.07;;;6.45;;
40252;SDS011;25972;51.854;4.534;2023-05-07T14:26:40;12.27;;;6.80;;
40252;SDS011;25972;51.854;4.534;2023-05-07T14:29:05;12.82;;;6.85;;
40252;SDS011;25972;51.854;4.534;2023-05-07T14:31:31;11.63;;;5.68;;
40252;SDS011;25972;51.854;4.534;2023-05-07T14:33:58;12.77;;;5.63;;
40252;SDS011;25972;51.854;4.534;2023-05-07T14:36:24;10.48;;;5.55;;
40252;SDS011;25972;51.854;4.534;2023-05-07T14:38:51;12.88;;;4.85;;
40252;SDS011;25972;51.854;4.534;2023-05-07T14:41:19;10.57;;;5.72;;
40252;SDS011;25972;51.854;4.534;2023-05-07T14:43:46;12.52;;;5.07;;
40252;SDS011;25972;51.854;4.534;2023-05-07T14:46:18;9.35;;;4.72;;
40252;SDS011;25972;51.854;4.534;2023-05-07T14:48:44;10.73;;;5.18;;
40252;SDS011;25972;51.854;4.534;2023-05-07T14:51:11;10.75;;;5.30;;
40252;SDS011;25972;51.854;4.534;2023-05-07T14:53:37;9.40;;;4.82;;
40252;SDS011;25972;51.854;4.534;2023-05-07T14:56:03;12.15;;;5.32;;
40252;SDS011;25972;51.854;4.534;2023-05-07T14:58:31;10.82;;;5.22;;
40252;SDS011;25972;51.854;4.534;2023-05-07T15:00:57;11.02;;;5.07;;
40252;SDS011;25972;51.854;4.534;2023-05-07T15:03:24;10.40;;;4.65;;
40252;SDS011;25972;51.854;4.534;2023-05-07T15:05:50;12.45;;;5.43;;
40252;SDS011;25972;51.854;4.534;2023-05-07T15:08:16;11.68;;;5.25;;